Time;durP1;ratioP1;P1;durP2;ratioP2;P2;SDS_P1;SDS_P2;PMS_P1;PMS_P2;Temp;Humidity;BMP_temperature;BMP_pressure;BME280_temperature;BME280_humidity;BME280_pressure;Samples;Min_cycle;Max_cycle;Signal;HPM_P1;HPM_P2
2022/09/10 00:00:33;;;;;;;6.80;6.05;;;;;;;13.09;100.00;100858.72;2072359;28;34112;-78
2022/09/10 00:01:35;;;;;;;7.57;5.80;;;;;;;13.07;100.00;100858.75;2072078;28;32301;-78
2022/09/10 00:02:38;;;;;;;7.50;6.75;;;;;;;13.06;100.00;100853.44;2073044;28;30584;-78
2022/09/10 00:03:42;;;;;;;6.63;5.95;;;;;;;13.05;100.00;100854.38;2072905;28;20051;-78
2022/09/10 00:04:44;;;;;;;10.15;6.07;;;;;;;13.04;100.00;100860.66;2071743;28;37935;-78
2022/09/10 00:05:46;;;;;;;8.70;6.28;;;;;;;13.03;100.00;100853.53;2071839;28;28000;-78
2022/09/10 00:06:49;;;;;;;7.43;6.18;;;;;;;12.99;100.00;100853.66;2072623;28;28561;-78
2022/09/10 00:07:51;;;;;;;9.27;6.70;;;;;;;13.00;100.00;100854.53;2072204;28;42463;-78
2022/09/10 00:08:57;;;;;;;8.82;7.00;;;;;;;12.97;100.00;100849.25;2073463;28;20043;-78
2022/09/10 00:09:59;;;;;;;9.27;6.63;;;;;;;12.99;100.00;100859.03;2072102;28;37307;-80
2022/09/10 00:11:10;;;;;;;7.10;6.25;;;;;;;13.00;100.00;100854.53;2072885;28;28925;-78
2022/09/10 00:12:13;;;;;;;8.20;6.80;;;;;;;13.02;100.00;100851.78;2072587;28;30542;-78
2022/09/10 00:13:20;;;;;;;7.88;6.80;;;;;;;12.97;100.00;100849.25;2072248;28;37879;-78
2022/09/10 00:14:22;;;;;;;7.88;6.75;;;;;;;12.99;100.00;100852.75;2073185;28;20831;-78
2022/09/10 00:15:24;;;;;;;9.15;6.93;;;;;;;13.02;100.00;100849.09;2072411;28;34818;-78
2022/09/10 00:16:27;;;;;;;6.93;6.28;;;;;;;12.98;100.00;100845.63;2071379;28;36180;-78
2022/09/10 00:17:31;;;;;;;7.38;5.93;;;;;;;12.97;100.00;100850.16;2071847;28;32211;-78
2022/09/10 00:18:33;;;;;;;7.70;6.97;;;;;;;12.97;100.00;100844.78;2072538;28;29670;-78
2022/09/10 00:19:35;;;;;;;7.32;6.55;;;;;;;12.96;100.00;100850.19;2071315;28;37754;-79
2022/09/10 00:20:53;;;;;;;7.22;5.63;;;;;;;12.95;100.00;100853.81;2071887;28;20053;-78
2022/09/10 00:21:54;;;;;;;7.85;7.05;;;;;;;12.92;100.00;100853.91;2072030;28;31313;-78
2022/09/10 00:22:56;;;;;;;10.18;6.97;;;;;;;12.87;100.00;100851.38;2072183;28;37623;-77
2022/09/10 00:24:00;;;;;;;7.75;7.05;;;;;;;12.87;100.00;100848.69;2072686;28;30024;-80
2022/09/10 00:25:02;;;;;;;7.60;6.47;;;;;;;12.86;100.00;100852.31;2072710;28;31091;-77
2022/09/10 00:26:13;;;;;;;9.30;7.30;;;;;;;12.86;100.00;100846.94;2073141;28;20331;-80
2022/09/10 00:27:15;;;;;;;9.50;6.53;;;;;;;12.84;100.00;100848.78;2071849;28;37048;-77
2022/09/10 00:28:17;;;;;;;8.05;5.97;;;;;;;12.81;100.00;100846.19;2063901;28;31463;-79
2022/09/10 00:29:19;;;;;;;9.25;7.35;;;;;;;12.82;100.00;100857.84;2072020;28;23732;-77
2022/09/10 00:30:21;;;;;;;7.75;7.05;;;;;;;12.80;100.00;100852.53;2079834;28;24418;-78
2022/09/10 00:31:23;;;;;;;11.52;8.55;;;;;;;12.77;100.00;100852.63;2080465;28;20049;-78
2022/09/10 00:32:24;;;;;;;7.90;6.97;;;;;;;12.77;100.00;100853.47;2071505;28;31178;-78
2022/09/10 00:33:27;;;;;;;9.10;7.43;;;;;;;12.77;100.00;100852.63;2071863;28;20042;-78
2022/09/10 00:34:29;;;;;;;9.25;7.72;;;;;;;12.75;100.00;100854.47;2071343;28;23675;-78
2022/09/10 00:35:33;;;;;;;11.70;8.10;;;;;;;12.77;100.00;100855.28;2072429;28;24170;-78
2022/09/10 00:36:40;;;;;;;9.63;7.72;;;;;;;12.76;100.00;100858.94;2080108;28;20064;-78
2022/09/10 00:37:42;;;;;;;13.65;8.77;;;;;;;12.75;100.00;100851.78;2080415;28;22238;-78
2022/09/10 00:38:45;;;;;;;12.00;8.55;;;;;;;12.72;100.00;100850.09;2079113;28;31182;-78
2022/09/10 00:39:49;;;;;;;9.43;8.27;;;;;;;12.73;100.00;100851.84;2072549;28;20047;-78
2022/09/10 00:40:51;;;;;;;9.98;8.38;;;;;;;12.72;100.00;100849.19;2079735;28;26598;-78
2022/09/10 00:41:54;;;;;;;9.15;8.23;;;;;;;12.72;100.00;100854.56;2080497;28;20047;-78
2022/09/10 00:42:58;;;;;;;9.88;8.88;;;;;;;12.75;100.00;100851.78;2070767;28;35762;-77
2022/09/10 00:44:04;;;;;;;11.50;9.00;;;;;;;12.75;100.00;100857.16;2064637;28;20074;-77
2022/09/10 00:45:07;;;;;;;11.88;9.80;;;;;;;12.75;100.00;100858.03;2071992;28;24095;-78
2022/09/10 00:46:09;;;;;;;9.85;8.70;;;;;;;12.73;100.00;100859.03;2073013;28;20038;-77
2022/09/10 00:47:37;;;;;;;8.20;7.40;;;;;;;12.74;100.00;100850.03;2073042;28;20053;-77
2022/09/10 00:48:39;;;;;;;10.10;9.07;;;;;;;12.73;100.00;100853.66;2071680;28;26473;-77
2022/09/10 00:49:47;;;;;;;11.63;9.23;;;;;;;12.75;100.00;100855.34;2071291;28;30456;-77
2022/09/10 00:50:52;;;;;;;10.88;9.65;;;;;;;12.77;100.00;100861.53;2071579;28;34477;-77
2022/09/10 00:51:54;;;;;;;11.95;10.32;;;;;;;12.80;100.00;100852.53;2065134;28;24642;-77
2022/09/10 00:53:01;;;;;;;11.23;10.02;;;;;;;12.81;100.00;100862.31;2064176;28;20031;-77
2022/09/10 00:54:05;;;;;;;12.02;10.07;;;;;;;12.85;100.00;100861.31;2073009;28;20048;-76
2022/09/10 00:55:08;;;;;;;12.15;9.68;;;;;;;12.86;100.00;100856.81;2078844;28;24592;-77
2022/09/10 00:56:10;;;;;;;13.68;10.23;;;;;;;12.86;100.00;100857.66;2071739;28;21198;-76
2022/09/10 00:57:22;;;;;;;11.80;10.02;;;;;;;12.87;100.00;100863.94;2071764;28;27413;-76
2022/09/10 00:58:26;;;;;;;14.50;10.00;;;;;;;12.86;100.00;100862.19;2071946;28;28102;-76
2022/09/10 00:59:30;;;;;;;12.18;9.93;;;;;;;12.87;100.00;100859.44;2072315;28;28840;-76
2022/09/10 01:00:32;;;;;;;14.18;9.90;;;;;;;12.87;100.00;100861.25;2071571;28;24097;-76
2022/09/10 01:01:41;;;;;;;10.75;9.65;;;;;;;12.86;100.00;100864.88;2072005;28;20041;-76
2022/09/10 01:02:44;;;;;;;10.57;9.23;;;;;;;12.86;100.00;100862.19;2071994;28;20038;-77
2022/09/10 01:03:46;;;;;;;9.55;8.52;;;;;;;12.85;100.00;100860.41;2064733;28;20051;-78
2022/09/10 01:04:54;;;;;;;12.13;9.80;;;;;;;12.84;100.00;100864.91;2072337;28;20082;-76
2022/09/10 01:05:57;;;;;;;12.43;9.90;;;;;;;12.86;100.00;100862.19;2078983;28;20088;-78
2022/09/10 01:07:00;;;;;;;10.60;9.40;;;;;;;12.85;100.00;100855.94;2071282;28;31636;-78
2022/09/10 01:08:02;;;;;;;10.93;9.85;;;;;;;12.88;100.00;100861.19;2071881;28;20993;-78
2022/09/10 01:09:05;;;;;;;12.52;10.75;;;;;;;12.87;100.00;100862.13;2072155;28;20101;-78
2022/09/10 01:10:20;;;;;;;11.45;9.25;;;;;;;12.87;100.00;100859.44;2071755;28;34020;-76
2022/09/10 01:12:02;;;;;;;10.98;9.88;;;;;;;12.88;100.00;100855.81;2072604;28;20802;-77
2022/09/10 01:13:32;;;;;;;13.82;10.63;;;;;;;12.87;100.00;100853.19;2073259;28;20780;-76
2022/09/10 01:14:59;;;;;;;11.75;10.55;;;;;;;12.87;100.00;100856.75;2075518;28;20042;-76
2022/09/10 01:16:44;;;;;;;13.00;11.60;;;;;;;12.88;100.00;100850.44;2063858;28;20054;-77
2022/09/10 01:17:51;;;;;;;11.35;10.18;;;;;;;12.87;100.00;100856.75;2072312;28;20042;-77
2022/09/10 01:19:18;;;;;;;11.60;9.38;;;;;;;12.89;100.00;100857.56;2071826;28;20783;-77
2022/09/10 01:21:22;;;;;;;14.15;11.73;;;;;;;12.90;100.00;100861.13;2066819;28;20900;-76
2022/09/10 01:23:40;;;;;;;12.95;11.55;;;;;;;12.90;100.00;100861.13;2053910;28;20066;-76
2022/09/10 01:24:53;;;;;;;12.73;11.30;;;;;;;12.92;100.00;100853.91;2054395;28;20043;-76
2022/09/10 01:26:19;;;;;;;12.40;11.15;;;;;;;12.91;100.00;100861.09;2040775;28;20083;-75
2022/09/10 01:27:47;;;;;;;11.10;9.52;;;;;;;12.90;100.00;100870.09;2063913;28;20034;-76
2022/09/10 01:29:10;;;;;;;13.30;10.07;;;;;;;12.90;100.00;100867.41;2077462;28;20160;-76
2022/09/10 01:30:23;;;;;;;12.32;10.20;;;;;;;12.92;100.00;100867.34;2076774;28;20046;-76
2022/09/10 01:31:38;;;;;;;15.02;11.60;;;;;;;12.92;100.00;100865.53;2072017;28;20034;-76
2022/09/10 01:32:58;;;;;;;14.27;10.95;;;;;;;12.92;100.00;100865.53;2066902;28;20859;-76
2022/09/10 01:34:22;;;;;;;16.30;12.77;;;;;;;12.94;100.00;100865.50;2066425;28;20046;-76
2022/09/10 01:35:45;;;;;;;15.88;13.55;;;;;;;12.99;100.00;100867.09;2074328;28;20058;-76
2022/09/10 01:36:52;;;;;;;14.13;12.57;;;;;;;12.97;100.00;100876.13;2071819;28;20216;-75
2022/09/10 01:38:03;;;;;;;14.73;12.93;;;;;;;12.97;100.00;100862.69;2071768;28;20047;-76
2022/09/10 01:39:05;;;;;;;16.15;12.98;;;;;;;12.96;100.00;100869.88;2064645;28;20121;-76
2022/09/10 01:40:09;;;;;;;16.33;12.23;;;;;;;12.99;100.00;100868.88;2071557;28;20093;-76
2022/09/10 01:41:12;;;;;;;16.52;12.05;;;;;;;12.96;100.00;100869.88;2072073;28;20122;-76
2022/09/10 01:42:17;;;;;;;14.60;11.90;;;;;;;12.97;100.00;100870.75;2072203;28;20046;-76
2022/09/10 01:43:19;;;;;;;14.98;12.35;;;;;;;12.96;100.00;100869.00;2079560;28;20911;-76
2022/09/10 01:44:46;;;;;;;14.85;13.25;;;;;;;13.01;100.00;100874.22;2071781;28;20198;-76
2022/09/10 01:46:24;;;;;;;14.43;12.90;;;;;;;13.01;100.00;100866.16;2066639;28;20199;-77
2022/09/10 01:47:33;;;;;;;15.48;12.75;;;;;;;13.03;100.00;100866.97;2067777;28;20096;-76
2022/09/10 01:48:59;;;;;;;17.45;13.55;;;;;;;13.04;100.00;100868.72;2068391;28;20048;-76
2022/09/10 01:50:23;;;;;;;15.38;12.77;;;;;;;13.03;100.00;100865.19;2085834;28;20041;-76
2022/09/10 01:51:43;;;;;;;16.35;13.75;;;;;;;13.05;100.00;100865.13;2084407;28;20050;-76
2022/09/10 01:53:16;;;;;;;17.77;13.68;;;;;;;13.05;100.00;100863.31;2077181;28;20061;-76
2022/09/10 01:54:25;;;;;;;15.00;12.80;;;;;;;13.06;100.00;100862.38;2079863;28;20131;-76
2022/09/10 01:55:34;;;;;;;16.20;14.48;;;;;;;13.06;100.00;100858.81;2068141;28;20236;-76
2022/09/10 01:56:59;;;;;;;16.30;13.50;;;;;;;13.08;100.00;100865.00;2064878;28;20900;-76
2022/09/10 01:58:29;;;;;;;15.43;13.05;;;;;;;13.08;100.00;100868.59;2065830;28;31597;-76
2022/09/10 02:00:01;;;;;;;15.18;13.43;;;;;;;13.08;100.00;100865.00;2069197;28;20043;-77
2022/09/10 02:01:57;;;;;;;16.77;13.80;;;;;;;13.08;100.00;100865.00;2078843;28;20940;-76
2022/09/10 02:03:14;;;;;;;18.45;13.90;;;;;;;13.08;100.00;100865.91;2067793;28;20951;-76
2022/09/10 02:04:19;;;;;;;16.17;13.38;;;;;;;13.06;100.00;100867.72;2071454;28;20054;-76
2022/09/10 02:05:23;;;;;;;16.40;14.07;;;;;;;13.08;100.00;100865.00;2066326;28;20110;-76
2022/09/10 02:06:34;;;;;;;15.88;13.15;;;;;;;13.09;100.00;100867.63;2064379;28;20047;-76
2022/09/10 02:07:38;;;;;;;16.80;15.02;;;;;;;13.09;100.00;100864.94;2074231;28;20060;-76
2022/09/10 02:08:44;;;;;;;14.65;11.45;;;;;;;13.10;100.00;100860.44;2071659;28;20039;-76
2022/09/10 02:09:46;;;;;;;20.85;14.25;;;;;;;13.11;100.00;100857.72;2064162;28;20043;-76
2022/09/10 02:10:50;;;;;;;17.83;15.25;;;;;;;13.11;100.00;100864.91;2063605;28;20888;-76
2022/09/10 02:11:54;;;;;;;18.90;14.75;;;;;;;13.12;100.00;100864.00;2056675;28;20098;-76
2022/09/10 02:13:13;;;;;;;17.70;14.88;;;;;;;13.12;100.00;100867.53;2082924;28;20053;-76
2022/09/10 02:14:21;;;;;;;18.88;14.18;;;;;;;13.13;100.00;100863.03;2087094;28;20048;-77
2022/09/10 02:15:37;;;;;;;16.77;13.50;;;;;;;13.13;100.00;100868.41;2079681;28;20516;-77
2022/09/10 02:17:00;;;;;;;18.55;14.95;;;;;;;13.14;100.00;100864.81;2075397;28;20046;-77
2022/09/10 02:18:02;;;;;;;15.10;12.90;;;;;;;13.15;100.00;100866.53;2065634;28;30815;-77
2022/09/10 02:19:06;;;;;;;14.57;12.50;;;;;;;13.15;100.00;100867.44;2071843;28;20038;-77
2022/09/10 02:20:13;;;;;;;16.30;14.27;;;;;;;13.16;100.00;100871.00;2071353;28;20042;-76
2022/09/10 02:21:15;;;;;;;17.42;14.93;;;;;;;13.16;100.00;100877.25;2070967;28;34539;-77
2022/09/10 02:22:19;;;;;;;23.58;15.95;;;;;;;13.18;100.00;100877.19;2071636;28;28115;-77
2022/09/10 02:23:27;;;;;;;18.80;15.65;;;;;;;13.16;100.00;100868.31;2071184;28;20408;-77
2022/09/10 02:24:28;;;;;;;19.95;14.60;;;;;;;13.17;100.00;100870.97;2071568;28;26171;-76
2022/09/10 02:25:36;;;;;;;15.60;13.30;;;;;;;13.17;100.00;100872.75;2071417;28;20046;-76
2022/09/10 02:26:42;;;;;;;16.95;13.43;;;;;;;13.17;100.00;100872.75;2063075;28;20204;-77
2022/09/10 02:27:44;;;;;;;22.50;16.77;;;;;;;13.21;100.00;100868.13;2065677;28;20117;-76
2022/09/10 02:28:48;;;;;;;21.00;16.55;;;;;;;13.21;100.00;100868.13;2071398;28;20116;-77
2022/09/10 02:29:50;;;;;;;17.15;13.95;;;;;;;13.22;100.00;100869.91;2063693;28;20910;-77
2022/09/10 02:30:55;;;;;;;19.00;14.88;;;;;;;13.21;100.00;100868.13;2071086;28;27742;-77
2022/09/10 02:32:00;;;;;;;16.17;12.88;;;;;;;13.21;100.00;100871.72;2079217;28;20038;-77
2022/09/10 02:33:02;;;;;;;20.38;14.82;;;;;;;13.22;100.00;100870.78;2079720;28;20137;-77
2022/09/10 02:34:04;;;;;;;17.52;15.40;;;;;;;13.22;100.00;100873.47;2071406;28;20031;-78
2022/09/10 02:35:07;;;;;;;17.95;16.05;;;;;;;13.22;100.00;100861.84;2071489;28;20045;-77
2022/09/10 02:36:09;;;;;;;18.85;15.80;;;;;;;13.24;100.00;100868.03;2071549;28;20050;-77
2022/09/10 02:37:11;;;;;;;19.40;14.95;;;;;;;13.25;100.00;100868.00;2062988;28;20034;-77
2022/09/10 02:38:15;;;;;;;15.45;13.88;;;;;;;13.25;100.00;100869.81;2063867;28;20072;-77
2022/09/10 02:39:17;;;;;;;14.40;12.95;;;;;;;13.26;100.00;100872.44;2071578;28;20145;-77
2022/09/10 02:40:19;;;;;;;17.00;14.75;;;;;;;13.27;100.00;100865.25;2070756;28;36168;-77
2022/09/10 02:41:24;;;;;;;14.98;12.77;;;;;;;13.26;100.00;100867.06;2071361;28;20137;-77
2022/09/10 02:42:27;;;;;;;17.73;15.23;;;;;;;13.28;100.00;100873.25;2071187;28;20157;-77
2022/09/10 02:43:36;;;;;;;21.45;16.15;;;;;;;13.30;100.00;100879.47;2062891;28;20047;-77
2022/09/10 02:44:39;;;;;;;21.23;14.82;;;;;;;13.30;100.00;100875.91;2071897;28;20731;-77
2022/09/10 02:45:40;;;;;;;19.08;15.32;;;;;;;13.28;100.00;100870.56;2071689;28;25521;-77
2022/09/10 02:46:44;;;;;;;17.73;15.00;;;;;;;13.29;100.00;100877.69;2072183;28;20187;-78
2022/09/10 02:47:48;;;;;;;20.52;15.57;;;;;;;13.30;100.00;100873.22;2071164;28;20046;-77
2022/09/10 02:48:53;;;;;;;16.00;14.18;;;;;;;13.31;100.00;100880.38;2066752;28;20054;-77
2022/09/10 02:49:56;;;;;;;16.85;15.02;;;;;;;13.29;100.00;100871.44;2071846;28;20050;-78
2022/09/10 02:50:58;;;;;;;19.45;15.73;;;;;;;13.28;100.00;100873.25;2079171;28;22274;-78
2022/09/10 02:52:02;;;;;;;19.52;15.10;;;;;;;13.28;100.00;100870.56;2071545;28;20090;-76
2022/09/10 02:53:05;;;;;;;16.27;13.43;;;;;;;13.30;100.00;100874.09;2071597;28;20051;-77
2022/09/10 02:54:07;;;;;;;17.25;15.45;;;;;;;13.28;100.00;100872.38;2071662;28;20042;-76
2022/09/10 02:55:10;;;;;;;18.48;14.25;;;;;;;13.27;100.00;100871.50;2079955;28;21103;-78
2022/09/10 02:56:18;;;;;;;20.17;15.50;;;;;;;13.28;100.00;100877.75;2079357;28;20038;-77
2022/09/10 02:57:20;;;;;;;19.13;16.27;;;;;;;13.27;100.00;100874.19;2078276;28;28206;-78
2022/09/10 02:58:21;;;;;;;22.10;16.98;;;;;;;13.28;100.00;100870.56;2087066;28;20044;-77
2022/09/10 02:59:23;;;;;;;18.65;15.02;;;;;;;13.27;100.00;100871.50;2070897;28;20053;-77
2022/09/10 03:00:25;;;;;;;18.10;14.75;;;;;;;13.28;100.00;100869.69;2063123;28;20039;-77
2022/09/10 03:01:28;;;;;;;20.08;16.80;;;;;;;13.27;100.00;100868.81;2079694;28;20950;-77
2022/09/10 03:02:36;;;;;;;20.05;15.52;;;;;;;13.26;100.00;100875.13;2079308;28;20993;-77
2022/09/10 03:03:38;;;;;;;14.00;12.50;;;;;;;13.25;100.00;100870.69;2070863;28;20045;-77
2022/09/10 03:04:39;;;;;;;15.23;13.23;;;;;;;13.25;100.00;100868.00;2079363;28;20883;-78
2022/09/10 03:05:42;;;;;;;17.17;14.32;;;;;;;13.25;100.00;100872.50;2078738;28;20050;-77
2022/09/10 03:06:45;;;;;;;20.17;16.08;;;;;;;13.26;100.00;100875.13;2070878;28;26253;-77
2022/09/10 03:07:48;;;;;;;18.70;16.23;;;;;;;13.25;100.00;100868.00;2071888;28;20046;-77
2022/09/10 03:08:50;;;;;;;19.00;15.77;;;;;;;13.24;100.00;100868.91;2063149;28;20057;-77
2022/09/10 03:09:52;;;;;;;16.88;14.40;;;;;;;13.24;100.00;100876.97;2055112;28;21439;-77
2022/09/10 03:10:54;;;;;;;15.07;13.52;;;;;;;13.26;100.00;100876.91;2071152;28;22624;-77
2022/09/10 03:11:56;;;;;;;21.92;17.85;;;;;;;13.26;100.00;100880.50;2079224;28;20275;-77
2022/09/10 03:13:01;;;;;;;19.40;16.30;;;;;;;13.26;100.00;100883.19;2078833;28;26404;-77
2022/09/10 03:14:03;;;;;;;17.98;15.48;;;;;;;13.27;100.00;100870.63;2070791;28;20161;-77
2022/09/10 03:15:06;;;;;;;24.88;18.15;;;;;;;13.28;100.00;100877.75;2079359;28;20836;-78
2022/09/10 03:16:09;;;;;;;22.77;17.58;;;;;;;13.28;100.00;100881.34;2087477;28;20858;-77
2022/09/10 03:17:11;;;;;;;18.77;16.55;;;;;;;13.28;100.00;100877.75;2071123;28;20088;-77
2022/09/10 03:18:14;;;;;;;19.88;17.73;;;;;;;13.27;100.00;100876.88;2079078;28;20324;-77
2022/09/10 03:19:16;;;;;;;20.33;18.05;;;;;;;13.29;100.00;100879.50;2078365;28;23232;-77
2022/09/10 03:20:21;;;;;;;26.05;18.75;;;;;;;13.31;100.00;100877.69;2070630;28;23666;-77
2022/09/10 03:21:24;;;;;;;24.48;17.58;;;;;;;13.29;100.00;100882.19;2071238;28;31733;-77
2022/09/10 03:22:27;;;;;;;22.00;16.88;;;;;;;13.29;100.00;100883.06;2087560;28;20811;-77
2022/09/10 03:23:29;;;;;;;21.47;17.83;;;;;;;13.29;100.00;100877.69;2078731;28;20578;-77
2022/09/10 03:24:30;;;;;;;21.65;16.92;;;;;;;13.32;100.00;100879.44;2062726;28;22780;-77
2022/09/10 03:25:32;;;;;;;22.55;17.50;;;;;;;13.33;100.00;100883.88;2079294;28;20046;-77
2022/09/10 03:26:34;;;;;;;22.73;16.67;;;;;;;13.33;100.00;100879.41;2086877;28;34844;-77
2022/09/10 03:27:37;;;;;;;23.85;19.45;;;;;;;13.33;100.00;100875.81;2079077;28;20092;-77
2022/09/10 03:28:43;;;;;;;25.63;19.90;;;;;;;13.34;100.00;100872.19;2078534;28;20049;-77
2022/09/10 03:29:48;;;;;;;24.27;18.70;;;;;;;13.34;100.00;100870.38;2070980;28;20043;-77
2022/09/10 03:30:49;;;;;;;19.60;16.52;;;;;;;13.34;100.00;100878.44;2070790;28;20046;-77
2022/09/10 03:31:51;;;;;;;22.77;18.00;;;;;;;13.34;100.00;100870.38;2070777;28;20947;-77
2022/09/10 03:32:54;;;;;;;21.67;17.83;;;;;;;13.33;100.00;100871.34;2087407;28;20060;-77
2022/09/10 03:33:59;;;;;;;19.20;15.30;;;;;;;13.33;100.00;100876.72;2087306;28;20038;-77
2022/09/10 03:35:02;;;;;;;27.50;19.98;;;;;;;13.33;100.00;100871.34;2071004;28;20049;-76
2022/09/10 03:36:07;;;;;;;25.30;19.13;;;;;;;13.31;100.00;100873.16;2066729;28;20038;-76
2022/09/10 03:37:09;;;;;;;21.40;16.95;;;;;;;13.32;100.00;100871.38;2079088;28;20050;-77
2022/09/10 03:38:11;;;;;;;23.80;19.73;;;;;;;13.32;100.00;100874.06;2087171;28;20910;-77
2022/09/10 03:39:15;;;;;;;22.70;19.00;;;;;;;13.30;100.00;100874.09;2087393;28;20050;-76
2022/09/10 03:40:19;;;;;;;21.60;18.30;;;;;;;13.31;100.00;100875.00;2079548;28;20034;-77
2022/09/10 03:41:20;;;;;;;23.80;18.02;;;;;;;13.31;100.00;100875.84;2079209;28;35558;-77
2022/09/10 03:42:22;;;;;;;24.73;19.02;;;;;;;13.31;100.00;100873.16;2086921;28;20042;-77
2022/09/10 03:43:24;;;;;;;23.83;19.90;;;;;;;13.32;100.00;100869.56;2079203;28;21013;-77
2022/09/10 03:44:27;;;;;;;25.52;19.80;;;;;;;13.33;100.00;100882.09;2071141;28;20072;-77
2022/09/10 03:45:29;;;;;;;25.77;19.58;;;;;;;13.32;100.00;100872.25;2071170;28;20054;-77
2022/09/10 03:46:31;;;;;;;29.20;21.60;;;;;;;13.33;100.00;100874.03;2071115;28;20043;-77
2022/09/10 03:47:38;;;;;;;21.10;16.83;;;;;;;13.36;100.00;100878.41;2071326;28;20049;-77
2022/09/10 03:48:42;;;;;;;25.20;20.77;;;;;;;13.38;100.00;100881.03;2071710;28;20093;-77
2022/09/10 03:49:44;;;;;;;23.02;18.85;;;;;;;13.39;100.00;100872.00;2070857;28;20176;-77
2022/09/10 03:50:51;;;;;;;28.00;22.05;;;;;;;13.41;100.00;100878.25;2071048;28;20057;-76
2022/09/10 03:51:53;;;;;;;26.63;19.13;;;;;;;13.41;100.00;100878.25;2079336;28;21625;-77
2022/09/10 03:52:55;;;;;;;24.75;19.60;;;;;;;13.42;100.00;100877.28;2086904;28;20111;-77
2022/09/10 03:54:01;;;;;;;30.10;21.95;;;;;;;13.42;100.00;100872.78;2079017;28;20045;-77
2022/09/10 03:55:05;;;;;;;28.17;22.08;;;;;;;13.44;100.00;100878.13;2079517;28;20037;-76
2022/09/10 03:56:08;;;;;;;24.60;20.17;;;;;;;13.44;100.00;100876.31;2079064;28;20046;-77
2022/09/10 03:57:10;;;;;;;29.35;22.40;;;;;;;13.45;100.00;100872.69;2078955;28;28897;-76
2022/09/10 03:58:13;;;;;;;24.20;19.63;;;;;;;13.45;100.00;100877.19;2087399;28;20879;-77
2022/09/10 03:59:16;;;;;;;30.33;20.90;;;;;;;13.46;100.00;100879.84;2078946;28;22652;-77
2022/09/10 04:00:19;;;;;;;28.17;21.30;;;;;;;13.47;100.00;100872.63;2079254;28;20891;-77
2022/09/10 04:01:23;;;;;;;26.38;20.42;;;;;;;13.46;100.00;100881.63;2087138;28;20041;-77
2022/09/10 04:02:25;;;;;;;30.02;22.00;;;;;;;13.48;100.00;100877.09;2079198;28;20115;-76
2022/09/10 04:03:27;;;;;;;26.52;21.70;;;;;;;13.50;100.00;100875.22;2070865;28;20047;-77
2022/09/10 04:04:30;;;;;;;32.60;22.95;;;;;;;13.51;100.00;100882.34;2070573;28;20955;-76
2022/09/10 04:05:32;;;;;;;27.60;22.58;;;;;;;13.50;100.00;100875.22;2078567;28;25415;-76
2022/09/10 04:06:36;;;;;;;27.65;21.63;;;;;;;13.50;100.00;100881.47;2079685;28;23136;-76
2022/09/10 04:07:38;;;;;;;24.40;20.23;;;;;;;13.51;100.00;100882.34;2087613;28;20034;-77
2022/09/10 04:08:42;;;;;;;27.80;22.30;;;;;;;13.51;100.00;100882.34;2087107;28;21152;-76
2022/09/10 04:09:45;;;;;;;30.00;23.08;;;;;;;13.51;100.00;100875.16;2088130;28;20042;-77
2022/09/10 04:10:47;;;;;;;28.33;21.42;;;;;;;13.51;100.00;100877.88;2088414;28;23600;-77
2022/09/10 04:11:49;;;;;;;28.00;20.70;;;;;;;13.51;100.00;100875.16;2080595;28;20068;-77
2022/09/10 04:12:54;;;;;;;29.35;21.83;;;;;;;13.53;100.00;100885.84;2072529;28;20050;-77
2022/09/10 04:13:56;;;;;;;28.20;21.45;;;;;;;13.53;100.00;100877.78;2072349;28;20037;-77
2022/09/10 04:15:00;;;;;;;27.55;22.40;;;;;;;13.54;100.00;100882.25;2080493;28;20045;-77
2022/09/10 04:16:02;;;;;;;33.30;23.10;;;;;;;13.55;100.00;100884.88;2088809;28;20064;-77
2022/09/10 04:17:05;;;;;;;27.67;22.75;;;;;;;13.55;100.00;100889.38;2088787;28;20056;-77
2022/09/10 04:18:07;;;;;;;27.58;21.20;;;;;;;13.56;100.00;100880.38;2088837;28;20312;-76
2022/09/10 04:19:09;;;;;;;27.40;22.25;;;;;;;13.55;100.00;100884.88;2088426;28;20100;-77
2022/09/10 04:20:11;;;;;;;29.08;21.08;;;;;;;13.55;100.00;100889.38;2088701;28;20045;-77
2022/09/10 04:21:14;;;;;;;26.15;20.55;;;;;;;13.57;100.00;100884.81;2088445;28;20053;-77
2022/09/10 04:22:16;;;;;;;28.75;22.67;;;;;;;13.58;100.00;100896.47;2079968;28;20891;-76
2022/09/10 04:23:18;;;;;;;31.65;23.38;;;;;;;13.59;100.00;100885.66;2079819;28;20980;-76
2022/09/10 04:24:21;;;;;;;26.00;20.80;;;;;;;13.59;100.00;100890.16;2072828;28;20050;-77
2022/09/10 04:25:23;;;;;;;28.80;21.05;;;;;;;13.60;100.00;100889.19;2071900;28;20173;-76
2022/09/10 04:26:25;;;;;;;34.50;25.67;;;;;;;13.60;100.00;100887.38;2072558;28;20034;-76
2022/09/10 04:27:27;;;;;;;30.70;22.80;;;;;;;13.62;100.00;100899.00;2072140;28;20897;-77
2022/09/10 04:28:30;;;;;;;33.13;24.10;;;;;;;13.62;100.00;100896.31;2072539;28;20907;-77
2022/09/10 04:29:33;;;;;;;31.45;23.45;;;;;;;13.62;100.00;100890.91;2072026;28;20054;-77
2022/09/10 04:30:36;;;;;;;32.38;23.38;;;;;;;13.65;100.00;100898.00;2072385;28;20038;-77
2022/09/10 04:31:37;;;;;;;30.05;23.63;;;;;;;13.64;100.00;100896.22;2080613;28;20920;-77
2022/09/10 04:32:45;;;;;;;28.85;23.73;;;;;;;13.65;100.00;100898.00;2080786;28;20046;-77
2022/09/10 04:33:48;;;;;;;33.67;24.55;;;;;;;13.66;100.00;100895.25;2072324;28;20879;-77
2022/09/10 04:34:53;;;;;;;36.60;25.50;;;;;;;13.66;100.00;100892.56;2072720;28;20082;-76
2022/09/10 04:35:59;;;;;;;29.23;23.95;;;;;;;13.66;100.00;100897.06;2072178;28;20853;-76
2022/09/10 04:37:01;;;;;;;27.52;21.67;;;;;;;13.68;100.00;100895.19;2073005;28;20046;-76
2022/09/10 04:38:06;;;;;;;33.22;25.55;;;;;;;13.67;100.00;100893.44;2072203;28;20042;-75
2022/09/10 04:39:13;;;;;;;27.70;21.63;;;;;;;13.67;100.00;100894.28;2080320;28;20043;-76
2022/09/10 04:40:15;;;;;;;34.13;25.55;;;;;;;13.67;100.00;100891.59;2072344;28;20884;-76
2022/09/10 04:41:18;;;;;;;29.67;23.23;;;;;;;13.68;100.00;100889.81;2080315;28;20045;-76
2022/09/10 04:42:21;;;;;;;36.22;24.75;;;;;;;13.68;100.00;100898.75;2080342;28;21000;-76
2022/09/10 04:43:24;;;;;;;33.55;24.45;;;;;;;13.68;100.00;100890.69;2072095;28;20105;-76
2022/09/10 04:44:28;;;;;;;31.75;23.55;;;;;;;13.70;100.00;100893.31;2072098;28;20046;-76
2022/09/10 04:45:31;;;;;;;30.95;23.48;;;;;;;13.69;100.00;100887.06;2072672;28;20812;-76
2022/09/10 04:46:35;;;;;;;35.53;25.65;;;;;;;13.70;100.00;100896.88;2072073;28;20050;-76
2022/09/10 04:47:39;;;;;;;33.40;25.02;;;;;;;13.70;100.00;100891.50;2072911;28;21034;-76
2022/09/10 04:48:41;;;;;;;30.42;23.88;;;;;;;13.70;100.00;100887.94;2080073;28;20054;-76
2022/09/10 04:49:44;;;;;;;36.60;26.02;;;;;;;13.72;100.00;100888.75;2087925;28;20045;-76
2022/09/10 04:50:47;;;;;;;31.88;25.10;;;;;;;13.73;100.00;100896.78;2088264;28;20888;-77
2022/09/10 04:52:15;;;;;;;33.80;25.90;;;;;;;13.73;100.00;100899.47;2081863;28;20159;-76
2022/09/10 04:53:18;;;;;;;33.92;22.92;;;;;;;13.73;100.00;100895.91;2072567;28;20030;-76
2022/09/10 04:54:21;;;;;;;32.03;23.63;;;;;;;13.75;100.00;100900.28;2063665;28;20855;-77
2022/09/10 04:55:24;;;;;;;31.63;24.95;;;;;;;13.74;100.00;100906.59;2064347;28;20045;-76
2022/09/10 04:56:27;;;;;;;29.02;22.88;;;;;;;13.73;100.00;100899.47;2071856;28;20055;-76
2022/09/10 04:57:29;;;;;;;28.50;22.48;;;;;;;13.74;100.00;100890.44;2063923;28;23323;-77
2022/09/10 04:58:31;;;;;;;35.67;26.17;;;;;;;13.74;100.00;100890.44;2071809;28;20043;-76
2022/09/10 04:59:38;;;;;;;31.70;24.60;;;;;;;13.76;100.00;100901.16;2064460;28;20790;-76
2022/09/10 05:00:40;;;;;;;33.85;26.38;;;;;;;13.78;100.00;100896.59;2063825;28;20124;-76